»·PEaware :: N614FT KJTC-KIGM

N614FT :: KJTC-KIGM

FLIGHT INFORMATION

Flight Status: Arrived
Operator: Privately registered:
United States
More flights under this callsign
Pilot: Carlos A. (16805)
Aircraft: PIPER PA-31/31P NAVAJO CHIEFTAIN
(PA31)
More flights by this aircraft type
Origin: KJTC Springerville Municipal
United States
Destination: KIGM Kingman
United States
More flights between these airports :: More routes between these airports
Route:
File this flight plan on PilotEdge
Remarks: ABC Arizona
Altitude:
(Current/Filed)
10,500ft
Speed:
(Current/Filed)
180kts
Departed: 02-Oct-22 08:11 PM
Arrived: 02-Oct-22 09:48 PM
Distance/Time
Traveled:
1nm/1:36
Distance/Time
To Go:
Arrived

Flight Plot

Page will automatically refresh every two minutes.

Flight plan parsing failed; only flown route is shown


Map Options




Map Legend


Flown Route
Filed Route
Departure Airport
Arrival Airport
Navaid (VOR, NDB)
Fix

Horizontal Profiles

Position Reports

Time Latitude Longitude Heading Altitude Ground
Speed
02-Oct-22 20:09 34.324579 -109.704042 288 10586ft 214kts
02-Oct-22 20:10 34.325978 -109.771159 213 10364ft 215kts
02-Oct-22 20:11 34.307722 -109.725113 71 9443ft 210kts
02-Oct-22 20:12 34.315883 -109.654792 99 9475ft 215kts
02-Oct-22 20:13 34.283718 -109.596737 126 9635ft 203kts
02-Oct-22 20:14 34.248330 -109.540478 133 9453ft 214kts
02-Oct-22 20:15 34.205486 -109.492115 142 9518ft 209kts
02-Oct-22 20:16 34.166202 -109.448059 128 9507ft 157kts
02-Oct-22 20:17 34.146037 -109.405163 121 9021ft 134kts
02-Oct-22 20:18 34.130687 -109.365450 98 8584ft 125kts
02-Oct-22 20:19 34.142972 -109.327240 43 8098ft 126kts
02-Oct-22 20:20 34.166639 -109.300912 41 8093ft 104kts
02-Oct-22 20:21 34.172625 -109.273884 145 7982ft 107kts
02-Oct-22 20:22 34.148439 -109.290707 220 7291ft 108kts
02-Oct-22 20:23 34.133180 -109.307877 224 7055ft 9kts
02-Oct-22 20:24 34.128908 -109.311865 51 7055ft 11kts
02-Oct-22 20:25 34.132133 -109.308154 43 7055ft 27kts
02-Oct-22 20:26 34.137958 -109.301423 46 7055ft 17kts
02-Oct-22 20:27 34.138382 -109.301254 317 7055ft 0kts
02-Oct-22 20:28 34.138383 -109.301254 317 7055ft 0kts
02-Oct-22 20:29 34.138383 -109.301254 317 7055ft 0kts
02-Oct-22 20:30 34.138383 -109.301254 317 7055ft 0kts
02-Oct-22 20:31 34.138582 -109.301475 316 7055ft 12kts
02-Oct-22 20:32 34.130314 -109.310919 218 7342ft 91kts
02-Oct-22 20:33 34.117066 -109.342179 297 7938ft 135kts
02-Oct-22 20:34 34.149247 -109.339166 42 9660ft 139kts
02-Oct-22 20:35 34.194374 -109.325529 351 9994ft 209kts
02-Oct-22 20:36 34.251265 -109.335958 334 10217ft 214kts
02-Oct-22 20:37 34.277089 -109.395027 285 10838ft 211kts
02-Oct-22 20:38 34.299645 -109.463637 285 10789ft 210kts
02-Oct-22 20:39 34.313547 -109.535371 277 10520ft 219kts
02-Oct-22 20:40 34.324723 -109.607380 281 10570ft 217kts
02-Oct-22 20:41 34.343759 -109.677161 290 10508ft 221kts
02-Oct-22 20:42 34.367203 -109.745447 293 10533ft 221kts
02-Oct-22 20:43 34.388524 -109.814447 277 10542ft 216kts
02-Oct-22 20:44 34.403012 -109.886050 280 10632ft 211kts
02-Oct-22 20:45 34.416589 -109.956908 280 10573ft 214kts
02-Oct-22 20:46 34.433721 -110.027172 286 10511ft 224kts
02-Oct-22 20:47 34.454139 -110.098280 285 10546ft 221kts
02-Oct-22 20:48 34.468800 -110.170688 281 10520ft 223kts
02-Oct-22 20:49 34.483176 -110.243823 277 10454ft 221kts
02-Oct-22 20:50 34.498775 -110.315278 286 10542ft 221kts
02-Oct-22 20:51 34.514576 -110.386549 281 10716ft 217kts
02-Oct-22 20:52 34.524724 -110.459451 274 10652ft 220kts
02-Oct-22 20:53 34.545834 -110.530138 283 10513ft 218kts
02-Oct-22 20:54 34.559764 -110.602019 282 10518ft 220kts
02-Oct-22 20:55 34.574698 -110.674485 279 10502ft 218kts
02-Oct-22 20:56 34.584326 -110.747450 277 10501ft 217kts
02-Oct-22 20:57 34.603980 -110.817267 287 10499ft 222kts
02-Oct-22 20:58 34.621661 -110.888380 285 10552ft 218kts
02-Oct-22 20:59 34.640937 -110.958283 284 10727ft 210kts
02-Oct-22 21:00 34.653397 -111.030469 281 10607ft 218kts
02-Oct-22 21:01 34.668989 -111.102263 283 10570ft 218kts
02-Oct-22 21:02 34.685336 -111.173295 282 10545ft 220kts
02-Oct-22 21:03 34.703850 -111.243581 283 10485ft 223kts
02-Oct-22 21:04 34.716411 -111.315062 281 10548ft 220kts
02-Oct-22 21:05 34.733325 -111.386183 283 10563ft 214kts
02-Oct-22 21:06 34.749048 -111.456768 284 10544ft 216kts
02-Oct-22 21:07 34.763883 -111.528286 280 10506ft 218kts
02-Oct-22 21:08 34.779185 -111.598754 270 10565ft 215kts
02-Oct-22 21:09 34.794104 -111.668795 291 10683ft 213kts
02-Oct-22 21:10 34.816941 -111.736726 284 10537ft 217kts
02-Oct-22 21:11 34.827688 -111.808184 282 10569ft 217kts
02-Oct-22 21:12 34.845769 -111.878702 282 10450ft 216kts
02-Oct-22 21:13 34.857566 -111.949511 276 10602ft 214kts
02-Oct-22 21:14 34.866291 -112.021507 286 10447ft 222kts
02-Oct-22 21:15 34.885320 -112.091506 285 10648ft 214kts
02-Oct-22 21:16 34.900022 -112.163650 281 10592ft 217kts
02-Oct-22 21:17 34.913092 -112.236027 282 10590ft 218kts
02-Oct-22 21:18 34.922256 -112.308486 276 10804ft 210kts
02-Oct-22 21:19 34.940319 -112.379097 291 10659ft 218kts
02-Oct-22 21:20 34.957979 -112.450376 275 10547ft 217kts
02-Oct-22 21:21 34.976981 -112.520092 293 10639ft 211kts
02-Oct-22 21:22 34.994173 -112.589537 279 10601ft 217kts
02-Oct-22 21:23 35.002682 -112.663166 277 10484ft 218kts
02-Oct-22 21:24 35.013973 -112.736255 288 10315ft 222kts
02-Oct-22 21:25 35.035379 -112.804104 286 10533ft 218kts
02-Oct-22 21:26 35.064111 -112.862066 321 10383ft 189kts
02-Oct-22 21:27 35.101995 -112.901306 312 10696ft 142kts
02-Oct-22 21:28 35.112110 -112.955834 246 10381ft 210kts
02-Oct-22 21:29 35.091874 -113.018499 272 10529ft 213kts
02-Oct-22 21:30 35.096598 -113.090908 285 10420ft 212kts
02-Oct-22 21:31 35.112677 -113.160461 281 10296ft 207kts
02-Oct-22 21:32 35.129735 -113.227925 282 10365ft 206kts
02-Oct-22 21:33 35.140543 -113.297280 274 10341ft 209kts
02-Oct-22 21:34 35.146202 -113.365468 275 10209ft 218kts
02-Oct-22 21:35 35.159411 -113.437652 283 9072ft 225kts
02-Oct-22 21:36 35.164872 -113.508602 245 8427ft 207kts
02-Oct-22 21:37 35.150721 -113.576107 279 7737ft 208kts
02-Oct-22 21:38 35.164325 -113.645293 276 7165ft 212kts
02-Oct-22 21:39 35.179817 -113.715083 293 6543ft 218kts
02-Oct-22 21:40 35.209194 -113.778310 300 6020ft 219kts
02-Oct-22 21:41 35.235294 -113.844284 294 5597ft 211kts
02-Oct-22 21:42 35.261935 -113.900074 307 5183ft 166kts
02-Oct-22 21:43 35.292554 -113.931321 1 4221ft 124kts
02-Oct-22 21:44 35.314530 -113.907244 5 4000ft 126kts
02-Oct-22 21:45 35.311354 -113.933179 205 4170ft 102kts
02-Oct-22 21:46 35.283272 -113.936049 174 3739ft 104kts
02-Oct-22 21:47 35.263042 -113.936193 235 3453ft 0kts
02-Oct-22 21:48 35.263174 -113.936276 30 3453ft 0kts
02-Oct-22 21:49 35.263250 -113.936310 266 3453ft 6kts
02-Oct-22 21:50 35.261190 -113.938852 245 3453ft 11kts
02-Oct-22 21:51 35.261809 -113.940140 299 3453ft 0kts
02-Oct-22 21:52 35.261810 -113.940141 299 3453ft 0kts
02-Oct-22 21:53 35.261810 -113.940141 299 3453ft 0kts
02-Oct-22 21:54 34.122256 -109.320442 43 7055ft 0kts

Navigation Log

Ident Type
Flight plan parsing failed, navigation log unavailable